sensor_id;sensor_type;location;lat;lon;timestamp;temperature;humidity
56162;DHT22;42045;52.986;6.014;2023-07-13T00:00:25;17.20;99.90
56162;DHT22;42045;52.986;6.014;2023-07-13T00:02:51;17.30;99.90
56162;DHT22;42045;52.986;6.014;2023-07-13T00:05:20;17.30;99.90
56162;DHT22;42045;52.986;6.014;2023-07-13T00:07:46;17.20;99.90
56162;DHT22;42045;52.986;6.014;2023-07-13T00:10:12;17.30;99.90
56162;DHT22;42045;52.986;6.014;2023-07-13T00:12:38;17.20;99.90
56162;DHT22;42045;52.986;6.014;2023-07-13T00:15:10;17.20;99.90
56162;DHT22;42045;52.986;6.014;2023-07-13T00:17:37;17.10;99.90
56162;DHT22;42045;52.986;6.014;2023-07-13T00:20:05;17.00;99.90
56162;DHT22;42045;52.986;6.014;2023-07-13T00:22:31;17.00;99.90
56162;DHT22;42045;52.986;6.014;2023-07-13T00:24:56;16.90;99.90
56162;DHT22;42045;52.986;6.014;2023-07-13T00:27:23;16.90;99.90
56162;DHT22;42045;52.986;6.014;2023-07-13T00:29:49;16.80;99.90
56162;DHT22;42045;52.986;6.014;2023-07-13T00:32:14;16.70;99.90
56162;DHT22;42045;52.986;6.014;2023-07-13T00:34:40;16.70;99.90
56162;DHT22;42045;52.986;6.014;2023-07-13T00:37:07;16.60;99.90
56162;DHT22;42045;52.986;6.014;2023-07-13T00:39:36;16.60;99.90
56162;DHT22;42045;52.986;6.014;2023-07-13T00:42:02;16.50;99.90
56162;DHT22;42045;52.986;6.014;2023-07-13T00:44:28;16.50;99.90
56162;DHT22;42045;52.986;6.014;2023-07-13T00:46:54;16.50;99.90
56162;DHT22;42045;52.986;6.014;2023-07-13T00:49:22;16.50;99.90
56162;DHT22;42045;52.986;6.014;2023-07-13T00:51:52;16.50;99.90
56162;DHT22;42045;52.986;6.014;2023-07-13T00:54:30;16.60;99.90
56162;DHT22;42045;52.986;6.014;2023-07-13T00:57:00;16.50;99.90
56162;DHT22;42045;52.986;6.014;2023-07-13T00:59:26;16.60;99.90
56162;DHT22;42045;52.986;6.014;2023-07-13T01:01:52;16.60;99.90
56162;DHT22;42045;52.986;6.014;2023-07-13T01:04:19;16.70;99.90
56162;DHT22;42045;52.986;6.014;2023-07-13T01:06:45;16.70;99.90
56162;DHT22;42045;52.986;6.014;2023-07-13T01:09:13;16.70;99.90
56162;DHT22;42045;52.986;6.014;2023-07-13T01:11:39;16.70;99.90
56162;DHT22;42045;52.986;6.014;2023-07-13T01:14:06;16.70;99.90
56162;DHT22;42045;52.986;6.014;2023-07-13T01:16:33;16.70;99.90
56162;DHT22;42045;52.986;6.014;2023-07-13T01:18:59;16.70;99.90
56162;DHT22;42045;52.986;6.014;2023-07-13T01:21:28;16.70;99.90
56162;DHT22;42045;52.986;6.014;2023-07-13T01:23:54;16.60;99.90
56162;DHT22;42045;52.986;6.014;2023-07-13T01:26:20;16.60;99.90
56162;DHT22;42045;52.986;6.014;2023-07-13T01:28:45;16.60;99.90
56162;DHT22;42045;52.986;6.014;2023-07-13T01:31:12;16.50;99.90
56162;DHT22;42045;52.986;6.014;2023-07-13T01:33:39;16.40;99.90
56162;DHT22;42045;52.986;6.014;2023-07-13T01:36:09;16.50;99.90
56162;DHT22;42045;52.986;6.014;2023-07-13T01:38:35;16.40;99.90
56162;DHT22;42045;52.986;6.014;2023-07-13T01:41:02;16.30;99.90
56162;DHT22;42045;52.986;6.014;2023-07-13T01:43:28;16.30;99.90
56162;DHT22;42045;52.986;6.014;2023-07-13T01:45:54;16.30;99.90
56162;DHT22;42045;52.986;6.014;2023-07-13T01:48:20;16.20;99.90
56162;DHT22;42045;52.986;6.014;2023-07-13T01:50:47;16.20;99.90
56162;DHT22;42045;52.986;6.014;2023-07-13T01:53:12;16.20;99.90
56162;DHT22;42045;52.986;6.014;2023-07-13T01:55:38;16.20;99.90
56162;DHT22;42045;52.986;6.014;2023-07-13T01:58:05;16.20;99.90
56162;DHT22;42045;52.986;6.014;2023-07-13T02:00:31;16.10;99.90
56162;DHT22;42045;52.986;6.014;2023-07-13T02:02:56;16.10;99.90
56162;DHT22;42045;52.986;6.014;2023-07-13T02:05:23;16.10;99.90
56162;DHT22;42045;52.986;6.014;2023-07-13T02:07:49;16.10;99.90
56162;DHT22;42045;52.986;6.014;2023-07-13T02:10:15;16.10;99.90
56162;DHT22;42045;52.986;6.014;2023-07-13T02:12:41;16.10;99.90
56162;DHT22;42045;52.986;6.014;2023-07-13T02:15:07;16.10;99.90
56162;DHT22;42045;52.986;6.014;2023-07-13T02:17:34;16.10;99.90
56162;DHT22;42045;52.986;6.014;2023-07-13T02:20:00;16.10;99.90
56162;DHT22;42045;52.986;6.014;2023-07-13T02:22:26;16.10;99.90
56162;DHT22;42045;52.986;6.014;2023-07-13T02:24:52;16.10;99.90
56162;DHT22;42045;52.986;6.014;2023-07-13T02:27:18;16.10;99.90
56162;DHT22;42045;52.986;6.014;2023-07-13T02:29:44;16.10;99.90
56162;DHT22;42045;52.986;6.014;2023-07-13T02:32:09;16.10;99.90
56162;DHT22;42045;52.986;6.014;2023-07-13T02:34:35;16.10;99.90
56162;DHT22;42045;52.986;6.014;2023-07-13T02:37:01;16.10;99.90
56162;DHT22;42045;52.986;6.014;2023-07-13T02:39:26;16.10;99.90
56162;DHT22;42045;52.986;6.014;2023-07-13T02:41:52;16.10;99.90
56162;DHT22;42045;52.986;6.014;2023-07-13T02:44:18;16.10;99.90
56162;DHT22;42045;52.986;6.014;2023-07-13T02:46:43;16.10;99.90
56162;DHT22;42045;52.986;6.014;2023-07-13T02:49:10;16.10;99.90
56162;DHT22;42045;52.986;6.014;2023-07-13T02:51:35;16.10;99.90
56162;DHT22;42045;52.986;6.014;2023-07-13T02:54:02;16.20;99.90
56162;DHT22;42045;52.986;6.014;2023-07-13T02:56:30;16.20;99.90
56162;DHT22;42045;52.986;6.014;2023-07-13T02:58:56;16.30;99.90
56162;DHT22;42045;52.986;6.014;2023-07-13T03:01:22;16.30;99.90
56162;DHT22;42045;52.986;6.014;2023-07-13T03:03:49;16.40;99.90
56162;DHT22;42045;52.986;6.014;2023-07-13T03:06:15;16.40;99.90
56162;DHT22;42045;52.986;6.014;2023-07-13T03:08:42;16.40;99.90
56162;DHT22;42045;52.986;6.014;2023-07-13T03:11:11;16.50;99.90
56162;DHT22;42045;52.986;6.014;2023-07-13T03:13:37;16.50;99.90
56162;DHT22;42045;52.986;6.014;2023-07-13T03:16:04;16.50;99.90
56162;DHT22;42045;52.986;6.014;2023-07-13T03:18:30;16.50;99.90
56162;DHT22;42045;52.986;6.014;2023-07-13T03:20:56;16.50;99.90
56162;DHT22;42045;52.986;6.014;2023-07-13T03:23:22;16.40;99.90
56162;DHT22;42045;52.986;6.014;2023-07-13T03:25:48;16.40;99.90
56162;DHT22;42045;52.986;6.014;2023-07-13T03:28:15;16.40;99.90
56162;DHT22;42045;52.986;6.014;2023-07-13T03:30:41;16.30;99.90
56162;DHT22;42045;52.986;6.014;2023-07-13T03:33:07;16.30;99.90
56162;DHT22;42045;52.986;6.014;2023-07-13T03:35:34;16.20;99.90
56162;DHT22;42045;52.986;6.014;2023-07-13T03:38:00;16.20;99.90
56162;DHT22;42045;52.986;6.014;2023-07-13T03:40:26;16.20;99.90
56162;DHT22;42045;52.986;6.014;2023-07-13T03:42:52;16.20;99.90
56162;DHT22;42045;52.986;6.014;2023-07-13T03:45:18;16.10;99.90
56162;DHT22;42045;52.986;6.014;2023-07-13T03:47:44;16.10;99.90
56162;DHT22;42045;52.986;6.014;2023-07-13T03:50:10;16.10;99.90
56162;DHT22;42045;52.986;6.014;2023-07-13T03:52:35;16.20;99.90
56162;DHT22;42045;52.986;6.014;2023-07-13T03:55:01;16.20;99.90
56162;DHT22;42045;52.986;6.014;2023-07-13T03:57:27;16.20;99.90
56162;DHT22;42045;52.986;6.014;2023-07-13T03:59:53;16.20;99.90
56162;DHT22;42045;52.986;6.014;2023-07-13T04:02:19;16.30;99.90
56162;DHT22;42045;52.986;6.014;2023-07-13T04:04:44;16.50;99.90
56162;DHT22;42045;52.986;6.014;2023-07-13T04:07:10;16.70;99.90
56162;DHT22;42045;52.986;6.014;2023-07-13T04:09:36;16.80;99.90
56162;DHT22;42045;52.986;6.014;2023-07-13T04:12:02;16.90;99.90
56162;DHT22;42045;52.986;6.014;2023-07-13T04:14:27;17.00;99.90
56162;DHT22;42045;52.986;6.014;2023-07-13T04:16:53;17.20;99.90
56162;DHT22;42045;52.986;6.014;2023-07-13T04:19:21;17.60;99.90
56162;DHT22;42045;52.986;6.014;2023-07-13T04:21:47;18.00;99.90
56162;DHT22;42045;52.986;6.014;2023-07-13T04:24:12;18.40;99.90
56162;DHT22;42045;52.986;6.014;2023-07-13T04:26:38;18.80;99.90
56162;DHT22;42045;52.986;6.014;2023-07-13T04:29:06;19.30;99.90
56162;DHT22;42045;52.986;6.014;2023-07-13T04:31:32;19.70;99.90
56162;DHT22;42045;52.986;6.014;2023-07-13T04:33:58;20.20;99.90
56162;DHT22;42045;52.986;6.014;2023-07-13T04:36:24;20.30;99.90
56162;DHT22;42045;52.986;6.014;2023-07-13T04:38:52;20.50;99.90
56162;DHT22;42045;52.986;6.014;2023-07-13T04:41:20;20.90;99.90
56162;DHT22;42045;52.986;6.014;2023-07-13T04:43:46;21.30;99.90
56162;DHT22;42045;52.986;6.014;2023-07-13T04:46:14;21.70;99.90
56162;DHT22;42045;52.986;6.014;2023-07-13T04:48:40;21.90;99.90
56162;DHT22;42045;52.986;6.014;2023-07-13T04:51:06;22.20;99.90
56162;DHT22;42045;52.986;6.014;2023-07-13T04:53:32;22.50;99.90
56162;DHT22;42045;52.986;6.014;2023-07-13T04:56:00;22.60;99.90
56162;DHT22;42045;52.986;6.014;2023-07-13T04:58:26;23.10;99.90
56162;DHT22;42045;52.986;6.014;2023-07-13T05:00:53;23.40;99.90
56162;DHT22;42045;52.986;6.014;2023-07-13T05:03:19;23.60;99.90
56162;DHT22;42045;52.986;6.014;2023-07-13T05:05:58;24.00;99.90
56162;DHT22;42045;52.986;6.014;2023-07-13T05:08:24;24.10;99.90
56162;DHT22;42045;52.986;6.014;2023-07-13T05:10:51;24.40;99.90
56162;DHT22;42045;52.986;6.014;2023-07-13T05:13:17;24.80;99.90
56162;DHT22;42045;52.986;6.014;2023-07-13T05:15:42;24.80;99.90
56162;DHT22;42045;52.986;6.014;2023-07-13T05:18:08;25.00;99.90
56162;DHT22;42045;52.986;6.014;2023-07-13T05:20:33;25.30;99.90
56162;DHT22;42045;52.986;6.014;2023-07-13T05:22:59;25.10;99.90
56162;DHT22;42045;52.986;6.014;2023-07-13T05:25:25;24.60;99.90
56162;DHT22;42045;52.986;6.014;2023-07-13T05:27:50;23.90;99.90
56162;DHT22;42045;52.986;6.014;2023-07-13T05:30:16;22.90;99.90
56162;DHT22;42045;52.986;6.014;2023-07-13T05:32:42;22.20;99.90
56162;DHT22;42045;52.986;6.014;2023-07-13T05:35:08;22.40;99.90
56162;DHT22;42045;52.986;6.014;2023-07-13T05:37:34;23.20;99.90
56162;DHT22;42045;52.986;6.014;2023-07-13T05:39:59;24.20;99.90
56162;DHT22;42045;52.986;6.014;2023-07-13T05:42:25;24.70;99.90
56162;DHT22;42045;52.986;6.014;2023-07-13T05:44:51;25.60;99.90
56162;DHT22;42045;52.986;6.014;2023-07-13T05:47:16;26.50;99.90
56162;DHT22;42045;52.986;6.014;2023-07-13T05:49:42;27.20;99.90
56162;DHT22;42045;52.986;6.014;2023-07-13T05:52:08;27.60;99.90
56162;DHT22;42045;52.986;6.014;2023-07-13T05:54:34;27.60;99.90
56162;DHT22;42045;52.986;6.014;2023-07-13T05:56:59;27.50;99.40
56162;DHT22;42045;52.986;6.014;2023-07-13T05:59:25;27.10;99.40
56162;DHT22;42045;52.986;6.014;2023-07-13T06:01:51;26.90;99.90
56162;DHT22;42045;52.986;6.014;2023-07-13T06:04:18;26.20;99.90
56162;DHT22;42045;52.986;6.014;2023-07-13T06:06:44;26.70;99.90
56162;DHT22;42045;52.986;6.014;2023-07-13T06:09:10;27.30;99.90
56162;DHT22;42045;52.986;6.014;2023-07-13T06:11:35;27.30;98.80
56162;DHT22;42045;52.986;6.014;2023-07-13T06:14:01;26.90;99.30
56162;DHT22;42045;52.986;6.014;2023-07-13T06:16:27;27.40;99.30
56162;DHT22;42045;52.986;6.014;2023-07-13T06:18:52;27.80;99.00
56162;DHT22;42045;52.986;6.014;2023-07-13T06:21:20;28.20;97.90
56162;DHT22;42045;52.986;6.014;2023-07-13T06:23:47;28.10;98.40
56162;DHT22;42045;52.986;6.014;2023-07-13T06:26:13;28.60;98.00
56162;DHT22;42045;52.986;6.014;2023-07-13T06:28:39;29.00;96.70
56162;DHT22;42045;52.986;6.014;2023-07-13T06:31:07;29.10;96.50
56162;DHT22;42045;52.986;6.014;2023-07-13T06:33:33;28.20;96.90
56162;DHT22;42045;52.986;6.014;2023-07-13T06:35:59;27.90;96.80
56162;DHT22;42045;52.986;6.014;2023-07-13T06:38:25;27.70;97.00
56162;DHT22;42045;52.986;6.014;2023-07-13T06:40:51;27.50;98.10
56162;DHT22;42045;52.986;6.014;2023-07-13T06:43:17;27.70;97.70
56162;DHT22;42045;52.986;6.014;2023-07-13T06:45:48;28.20;97.10
56162;DHT22;42045;52.986;6.014;2023-07-13T06:48:19;28.10;96.50
56162;DHT22;42045;52.986;6.014;2023-07-13T06:50:48;27.40;97.20
56162;DHT22;42045;52.986;6.014;2023-07-13T06:53:15;27.10;97.70
56162;DHT22;42045;52.986;6.014;2023-07-13T06:55:43;26.30;98.00
56162;DHT22;42045;52.986;6.014;2023-07-13T06:58:10;25.80;98.60
56162;DHT22;42045;52.986;6.014;2023-07-13T07:00:36;25.10;99.10
56162;DHT22;42045;52.986;6.014;2023-07-13T07:03:01;24.80;99.10
56162;DHT22;42045;52.986;6.014;2023-07-13T07:05:27;24.40;99.20
56162;DHT22;42045;52.986;6.014;2023-07-13T07:07:54;24.00;99.50
56162;DHT22;42045;52.986;6.014;2023-07-13T07:10:20;23.60;99.90
56162;DHT22;42045;52.986;6.014;2023-07-13T07:12:46;23.40;99.90
56162;DHT22;42045;52.986;6.014;2023-07-13T07:15:12;23.30;99.90
56162;DHT22;42045;52.986;6.014;2023-07-13T07:17:38;23.00;99.90
56162;DHT22;42045;52.986;6.014;2023-07-13T07:20:04;23.10;99.90
56162;DHT22;42045;52.986;6.014;2023-07-13T07:22:31;23.00;99.90
56162;DHT22;42045;52.986;6.014;2023-07-13T07:24:57;22.90;99.90
56162;DHT22;42045;52.986;6.014;2023-07-13T07:27:23;23.00;99.90
56162;DHT22;42045;52.986;6.014;2023-07-13T07:29:49;22.90;99.90
56162;DHT22;42045;52.986;6.014;2023-07-13T07:32:15;22.70;99.90
56162;DHT22;42045;52.986;6.014;2023-07-13T07:34:41;22.70;99.90
56162;DHT22;42045;52.986;6.014;2023-07-13T07:37:09;22.70;99.90
56162;DHT22;42045;52.986;6.014;2023-07-13T07:39:36;22.60;99.90
56162;DHT22;42045;52.986;6.014;2023-07-13T07:42:01;22.50;99.90
56162;DHT22;42045;52.986;6.014;2023-07-13T07:44:27;22.40;99.90
56162;DHT22;42045;52.986;6.014;2023-07-13T07:46:54;22.30;99.90
56162;DHT22;42045;52.986;6.014;2023-07-13T07:49:19;22.30;99.90
56162;DHT22;42045;52.986;6.014;2023-07-13T07:51:45;22.20;99.90
56162;DHT22;42045;52.986;6.014;2023-07-13T07:54:11;22.40;99.90
56162;DHT22;42045;52.986;6.014;2023-07-13T07:56:37;22.50;99.90
56162;DHT22;42045;52.986;6.014;2023-07-13T07:59:02;22.80;99.90
56162;DHT22;42045;52.986;6.014;2023-07-13T08:01:28;22.90;99.90
56162;DHT22;42045;52.986;6.014;2023-07-13T08:03:54;22.80;99.90
56162;DHT22;42045;52.986;6.014;2023-07-13T08:06:19;23.00;99.90
56162;DHT22;42045;52.986;6.014;2023-07-13T08:08:45;23.00;99.90
56162;DHT22;42045;52.986;6.014;2023-07-13T08:11:11;23.30;99.90
56162;DHT22;42045;52.986;6.014;2023-07-13T08:13:37;23.40;99.90
56162;DHT22;42045;52.986;6.014;2023-07-13T08:16:04;23.40;99.90
56162;DHT22;42045;52.986;6.014;2023-07-13T08:18:31;23.20;99.90
56162;DHT22;42045;52.986;6.014;2023-07-13T08:20:57;23.00;99.90
56162;DHT22;42045;52.986;6.014;2023-07-13T08:23:24;22.90;99.90
56162;DHT22;42045;52.986;6.014;2023-07-13T08:25:54;23.00;99.90
56162;DHT22;42045;52.986;6.014;2023-07-13T08:28:23;23.10;99.90
56162;DHT22;42045;52.986;6.014;2023-07-13T08:30:49;23.20;99.90
56162;DHT22;42045;52.986;6.014;2023-07-13T08:33:16;23.40;99.90
56162;DHT22;42045;52.986;6.014;2023-07-13T08:35:41;23.50;99.90
56162;DHT22;42045;52.986;6.014;2023-07-13T08:38:07;23.70;99.90
56162;DHT22;42045;52.986;6.014;2023-07-13T08:40:34;24.10;99.90
56162;DHT22;42045;52.986;6.014;2023-07-13T08:43:00;24.40;99.90
56162;DHT22;42045;52.986;6.014;2023-07-13T08:45:47;24.80;99.90
56162;DHT22;42045;52.986;6.014;2023-07-13T08:48:39;24.80;99.20
56162;DHT22;42045;52.986;6.014;2023-07-13T08:53:52;25.00;97.80
56162;DHT22;42045;52.986;6.014;2023-07-13T08:56:25;24.90;97.60
56162;DHT22;42045;52.986;6.014;2023-07-13T08:58:55;24.90;97.80
56162;DHT22;42045;52.986;6.014;2023-07-13T09:01:34;24.90;97.60
56162;DHT22;42045;52.986;6.014;2023-07-13T09:04:21;25.00;97.90
56162;DHT22;42045;52.986;6.014;2023-07-13T09:07:11;24.60;97.70
56162;DHT22;42045;52.986;6.014;2023-07-13T09:12:26;23.80;98.40
56162;DHT22;42045;52.986;6.014;2023-07-13T09:14:58;23.90;99.40
56162;DHT22;42045;52.986;6.014;2023-07-13T09:18:03;23.80;99.10
56162;DHT22;42045;52.986;6.014;2023-07-13T09:20:37;23.50;99.40
56162;DHT22;42045;52.986;6.014;2023-07-13T09:23:10;22.90;99.80
56162;DHT22;42045;52.986;6.014;2023-07-13T09:25:38;22.60;99.90
56162;DHT22;42045;52.986;6.014;2023-07-13T09:28:18;22.40;99.90
56162;DHT22;42045;52.986;6.014;2023-07-13T09:30:56;22.10;99.90
56162;DHT22;42045;52.986;6.014;2023-07-13T09:33:23;22.20;99.90
56162;DHT22;42045;52.986;6.014;2023-07-13T09:35:49;22.50;99.90
56162;DHT22;42045;52.986;6.014;2023-07-13T09:38:20;22.90;99.90
56162;DHT22;42045;52.986;6.014;2023-07-13T09:41:18;23.30;99.90
56162;DHT22;42045;52.986;6.014;2023-07-13T09:44:11;23.40;99.80
56162;DHT22;42045;52.986;6.014;2023-07-13T09:46:42;23.10;98.20
56162;DHT22;42045;52.986;6.014;2023-07-13T09:49:10;23.00;99.00
56162;DHT22;42045;52.986;6.014;2023-07-13T09:51:37;22.90;99.00
56162;DHT22;42045;52.986;6.014;2023-07-13T09:54:03;23.10;99.90
56162;DHT22;42045;52.986;6.014;2023-07-13T09:56:30;23.10;98.90
56162;DHT22;42045;52.986;6.014;2023-07-13T09:58:56;22.80;99.40
56162;DHT22;42045;52.986;6.014;2023-07-13T10:01:38;22.90;99.90
56162;DHT22;42045;52.986;6.014;2023-07-13T10:04:11;23.10;99.90
56162;DHT22;42045;52.986;6.014;2023-07-13T10:06:39;23.30;99.10
56162;DHT22;42045;52.986;6.014;2023-07-13T10:09:07;23.60;99.90
56162;DHT22;42045;52.986;6.014;2023-07-13T10:11:35;23.70;99.70
56162;DHT22;42045;52.986;6.014;2023-07-13T10:14:08;23.90;98.70
56162;DHT22;42045;52.986;6.014;2023-07-13T10:16:36;24.00;98.30
56162;DHT22;42045;52.986;6.014;2023-07-13T10:22:22;24.00;97.60
56162;DHT22;42045;52.986;6.014;2023-07-13T10:24:49;24.10;99.00
56162;DHT22;42045;52.986;6.014;2023-07-13T10:27:18;24.30;97.30
56162;DHT22;42045;52.986;6.014;2023-07-13T10:30:09;24.60;98.10
56162;DHT22;42045;52.986;6.014;2023-07-13T10:32:37;24.70;96.20
56162;DHT22;42045;52.986;6.014;2023-07-13T10:35:03;24.60;95.80
56162;DHT22;42045;52.986;6.014;2023-07-13T10:37:53;24.40;94.40
56162;DHT22;42045;52.986;6.014;2023-07-13T10:40:26;24.50;95.50
56162;DHT22;42045;52.986;6.014;2023-07-13T10:42:56;24.70;95.90
56162;DHT22;42045;52.986;6.014;2023-07-13T10:45:24;24.60;96.40
56162;DHT22;42045;52.986;6.014;2023-07-13T10:47:54;24.50;96.20
56162;DHT22;42045;52.986;6.014;2023-07-13T10:50:25;24.60;96.20
56162;DHT22;42045;52.986;6.014;2023-07-13T10:53:03;24.50;96.50
56162;DHT22;42045;52.986;6.014;2023-07-13T10:55:44;24.40;95.80
56162;DHT22;42045;52.986;6.014;2023-07-13T10:58:31;24.70;96.90
56162;DHT22;42045;52.986;6.014;2023-07-13T11:03:35;24.80;98.00
56162;DHT22;42045;52.986;6.014;2023-07-13T11:06:09;24.80;94.70
56162;DHT22;42045;52.986;6.014;2023-07-13T11:08:44;24.70;94.80
56162;DHT22;42045;52.986;6.014;2023-07-13T11:11:33;24.70;95.10
56162;DHT22;42045;52.986;6.014;2023-07-13T11:14:01;24.70;95.70
56162;DHT22;42045;52.986;6.014;2023-07-13T11:21:29;25.10;97.60
56162;DHT22;42045;52.986;6.014;2023-07-13T11:31:43;25.30;95.10
56162;DHT22;42045;52.986;6.014;2023-07-13T11:34:19;25.20;94.30
56162;DHT22;42045;52.986;6.014;2023-07-13T11:36:47;25.00;94.60
56162;DHT22;42045;52.986;6.014;2023-07-13T11:39:34;24.90;94.00
56162;DHT22;42045;52.986;6.014;2023-07-13T11:42:07;24.90;94.60
56162;DHT22;42045;52.986;6.014;2023-07-13T11:44:34;24.70;94.60
56162;DHT22;42045;52.986;6.014;2023-07-13T11:47:10;24.70;94.30
56162;DHT22;42045;52.986;6.014;2023-07-13T11:49:44;24.40;93.80
56162;DHT22;42045;52.986;6.014;2023-07-13T11:52:22;24.10;94.00
56162;DHT22;42045;52.986;6.014;2023-07-13T11:54:51;23.90;95.60
56162;DHT22;42045;52.986;6.014;2023-07-13T11:59:49;23.80;95.70
56162;DHT22;42045;52.986;6.014;2023-07-13T12:02:53;24.00;96.00
56162;DHT22;42045;52.986;6.014;2023-07-13T12:05:13;24.20;95.60
56162;DHT22;42045;52.986;6.014;2023-07-13T12:07:39;24.40;96.10
56162;DHT22;42045;52.986;6.014;2023-07-13T12:12:36;24.80;95.80
56162;DHT22;42045;52.986;6.014;2023-07-13T12:15:07;25.00;95.90
56162;DHT22;42045;52.986;6.014;2023-07-13T12:17:34;25.20;96.10
56162;DHT22;42045;52.986;6.014;2023-07-13T12:20:03;25.10;95.70
56162;DHT22;42045;52.986;6.014;2023-07-13T12:22:32;25.10;94.60
56162;DHT22;42045;52.986;6.014;2023-07-13T12:25:00;25.30;95.90
56162;DHT22;42045;52.986;6.014;2023-07-13T12:27:27;25.30;95.30
56162;DHT22;42045;52.986;6.014;2023-07-13T12:30:02;25.50;96.10
56162;DHT22;42045;52.986;6.014;2023-07-13T12:32:31;25.50;95.00
56162;DHT22;42045;52.986;6.014;2023-07-13T12:35:22;25.10;94.40
56162;DHT22;42045;52.986;6.014;2023-07-13T12:37:47;24.50;94.30
56162;DHT22;42045;52.986;6.014;2023-07-13T12:40:18;24.30;94.50
56162;DHT22;42045;52.986;6.014;2023-07-13T12:42:46;24.10;95.40
56162;DHT22;42045;52.986;6.014;2023-07-13T12:45:22;24.10;95.50
56162;DHT22;42045;52.986;6.014;2023-07-13T12:48:04;24.30;95.60
56162;DHT22;42045;52.986;6.014;2023-07-13T12:50:42;24.50;94.40
56162;DHT22;42045;52.986;6.014;2023-07-13T12:53:14;24.40;93.90
56162;DHT22;42045;52.986;6.014;2023-07-13T12:55:48;24.40;95.00
56162;DHT22;42045;52.986;6.014;2023-07-13T12:58:25;24.30;95.20
56162;DHT22;42045;52.986;6.014;2023-07-13T13:00:54;24.50;96.10
56162;DHT22;42045;52.986;6.014;2023-07-13T13:03:31;24.50;96.30
56162;DHT22;42045;52.986;6.014;2023-07-13T13:06:17;24.20;95.70
56162;DHT22;42045;52.986;6.014;2023-07-13T13:08:46;24.00;96.50
56162;DHT22;42045;52.986;6.014;2023-07-13T13:11:14;23.60;95.70
56162;DHT22;42045;52.986;6.014;2023-07-13T13:13:42;23.30;96.40
56162;DHT22;42045;52.986;6.014;2023-07-13T13:16:29;23.00;96.20
56162;DHT22;42045;52.986;6.014;2023-07-13T13:19:00;23.00;95.90
56162;DHT22;42045;52.986;6.014;2023-07-13T13:21:27;23.20;96.90
56162;DHT22;42045;52.986;6.014;2023-07-13T13:23:53;23.20;97.00
56162;DHT22;42045;52.986;6.014;2023-07-13T13:26:21;23.30;97.00
56162;DHT22;42045;52.986;6.014;2023-07-13T13:28:47;23.30;96.40
56162;DHT22;42045;52.986;6.014;2023-07-13T13:31:15;23.30;96.70
56162;DHT22;42045;52.986;6.014;2023-07-13T13:33:43;23.20;96.90
56162;DHT22;42045;52.986;6.014;2023-07-13T13:36:18;23.20;97.10
56162;DHT22;42045;52.986;6.014;2023-07-13T13:38:44;23.20;97.00
56162;DHT22;42045;52.986;6.014;2023-07-13T13:41:12;23.20;96.60
56162;DHT22;42045;52.986;6.014;2023-07-13T13:43:39;23.00;95.80
56162;DHT22;42045;52.986;6.014;2023-07-13T13:46:18;22.90;96.60
56162;DHT22;42045;52.986;6.014;2023-07-13T13:48:44;23.00;97.30
56162;DHT22;42045;52.986;6.014;2023-07-13T13:51:20;23.10;98.10
56162;DHT22;42045;52.986;6.014;2023-07-13T13:53:47;23.20;97.60
56162;DHT22;42045;52.986;6.014;2023-07-13T13:56:14;23.30;96.10
56162;DHT22;42045;52.986;6.014;2023-07-13T13:58:40;23.20;96.20
56162;DHT22;42045;52.986;6.014;2023-07-13T14:01:16;23.20;96.90
56162;DHT22;42045;52.986;6.014;2023-07-13T14:03:42;23.20;95.70
56162;DHT22;42045;52.986;6.014;2023-07-13T14:06:12;23.10;95.70
56162;DHT22;42045;52.986;6.014;2023-07-13T14:08:38;23.00;95.40
56162;DHT22;42045;52.986;6.014;2023-07-13T14:11:04;22.90;96.40
56162;DHT22;42045;52.986;6.014;2023-07-13T14:13:40;22.80;96.60
56162;DHT22;42045;52.986;6.014;2023-07-13T14:16:18;22.80;96.80
56162;DHT22;42045;52.986;6.014;2023-07-13T14:18:46;22.70;96.50
56162;DHT22;42045;52.986;6.014;2023-07-13T14:21:17;22.50;96.30
56162;DHT22;42045;52.986;6.014;2023-07-13T14:23:45;22.60;96.70
56162;DHT22;42045;52.986;6.014;2023-07-13T14:26:17;22.70;97.50
56162;DHT22;42045;52.986;6.014;2023-07-13T14:28:47;22.70;96.60
56162;DHT22;42045;52.986;6.014;2023-07-13T14:31:15;22.70;97.20
56162;DHT22;42045;52.986;6.014;2023-07-13T14:33:41;22.80;96.30
56162;DHT22;42045;52.986;6.014;2023-07-13T14:36:29;22.80;96.90
56162;DHT22;42045;52.986;6.014;2023-07-13T14:38:56;22.90;97.50
56162;DHT22;42045;52.986;6.014;2023-07-13T14:41:22;22.90;97.50
56162;DHT22;42045;52.986;6.014;2023-07-13T14:43:48;22.90;97.00
56162;DHT22;42045;52.986;6.014;2023-07-13T14:46:34;22.90;96.00
56162;DHT22;42045;52.986;6.014;2023-07-13T14:49:30;22.80;95.70
56162;DHT22;42045;52.986;6.014;2023-07-13T14:51:58;22.80;96.70
56162;DHT22;42045;52.986;6.014;2023-07-13T14:54:24;22.70;96.50
56162;DHT22;42045;52.986;6.014;2023-07-13T14:56:50;22.70;96.10
56162;DHT22;42045;52.986;6.014;2023-07-13T14:59:16;22.70;96.70
56162;DHT22;42045;52.986;6.014;2023-07-13T15:01:46;22.60;96.00
56162;DHT22;42045;52.986;6.014;2023-07-13T15:04:12;22.50;96.40
56162;DHT22;42045;52.986;6.014;2023-07-13T15:06:57;22.50;97.30
56162;DHT22;42045;52.986;6.014;2023-07-13T15:09:23;22.60;97.90
56162;DHT22;42045;52.986;6.014;2023-07-13T15:11:52;22.50;97.20
56162;DHT22;42045;52.986;6.014;2023-07-13T15:14:18;22.40;97.40
56162;DHT22;42045;52.986;6.014;2023-07-13T15:16:46;22.40;97.20
56162;DHT22;42045;52.986;6.014;2023-07-13T15:19:12;22.40;97.90
56162;DHT22;42045;52.986;6.014;2023-07-13T15:21:37;22.40;97.80
56162;DHT22;42045;52.986;6.014;2023-07-13T15:24:03;22.30;98.60
56162;DHT22;42045;52.986;6.014;2023-07-13T15:26:33;22.30;97.70
56162;DHT22;42045;52.986;6.014;2023-07-13T15:28:59;22.20;97.40
56162;DHT22;42045;52.986;6.014;2023-07-13T15:31:25;22.30;97.90
56162;DHT22;42045;52.986;6.014;2023-07-13T15:33:54;22.30;97.80
56162;DHT22;42045;52.986;6.014;2023-07-13T15:36:21;22.40;97.70
56162;DHT22;42045;52.986;6.014;2023-07-13T15:38:48;22.40;97.70
56162;DHT22;42045;52.986;6.014;2023-07-13T15:41:21;22.30;97.20
56162;DHT22;42045;52.986;6.014;2023-07-13T15:43:52;22.30;98.30
56162;DHT22;42045;52.986;6.014;2023-07-13T15:46:20;22.30;98.10
56162;DHT22;42045;52.986;6.014;2023-07-13T15:48:48;22.20;97.90
56162;DHT22;42045;52.986;6.014;2023-07-13T15:51:23;22.10;98.30
56162;DHT22;42045;52.986;6.014;2023-07-13T15:53:50;22.10;98.40
56162;DHT22;42045;52.986;6.014;2023-07-13T15:56:22;22.20;98.30
56162;DHT22;42045;52.986;6.014;2023-07-13T15:58:49;22.10;99.00
56162;DHT22;42045;52.986;6.014;2023-07-13T16:01:16;22.10;98.40
56162;DHT22;42045;52.986;6.014;2023-07-13T16:03:41;22.10;98.50
56162;DHT22;42045;52.986;6.014;2023-07-13T16:06:19;22.10;99.40
56162;DHT22;42045;52.986;6.014;2023-07-13T16:08:48;22.20;99.30